Ilyinskiy, Russia
Current Conditions -  °F | °C
As of 6:00 AM on Saturday 29 Nov 2014 (Local Time) from UHSS Reporting Station
Clear Clear  
Wind Chill:   Ceiling: Unl
Heat Index: 14°   Visibility: 6mi
Dew Point: 12°   Wind: 4mph
Humidity: 93%   Direction: 10°N
Pressure: 30.18"   Gusts: NA
Location:  47.98°N, 142.2°E
Report Text: UHSS 281900Z 01002MPS 9999 SKC M10/M11 Q1022 RMK QFE765/1020
Loading
Personal Weather Stations






























Interactive Weather Map New forecast layout! Learn more

10-Day Weather Forecast

Advertisements
Track Severe Weather on mobile